createdAt,value
2023-01-17T00:01:51.002Z,985.7175943936835
2023-01-17T00:06:47.207Z,985.6545661243882
2023-01-17T00:12:01.546Z,985.6071869437988
2023-01-17T00:17:06.655Z,985.5601836121889
2023-01-17T00:22:07.914Z,985.5802327110488
2023-01-17T00:27:04.197Z,985.7280340836089
2023-01-17T00:32:00.432Z,985.7485296317907
2023-01-17T00:36:56.743Z,985.6967871250807
2023-01-17T00:41:53.019Z,985.6632927361013
2023-01-17T00:46:49.271Z,985.6501811654846
2023-01-17T00:51:45.447Z,985.7441576667355
2023-01-17T00:56:41.704Z,985.7447548496729
2023-01-17T01:01:38.196Z,985.8209070779808
2023-01-17T01:06:36.265Z,985.9263982916856
2023-01-17T01:11:32.543Z,985.8228812931964
2023-01-17T01:16:30.820Z,985.7891254201812
2023-01-17T01:21:27.007Z,985.6651165739346
2023-01-17T01:26:23.279Z,985.3848475813382
2023-01-17T01:31:19.598Z,985.3343582906757
2023-01-17T01:36:15.779Z,985.363303210204
2023-01-17T01:41:14.065Z,985.2968006903155
2023-01-17T01:46:11.310Z,985.0878302426327
2023-01-17T01:51:09.635Z,985.1643933543833
2023-01-17T01:56:09.853Z,984.665244500909
2023-01-17T02:01:08.234Z,984.7503957149858
2023-01-17T02:06:08.306Z,984.6694815778797
2023-01-17T02:11:04.592Z,984.5166399468412
2023-01-17T02:16:06.917Z,984.2750074108402
2023-01-17T02:21:18.071Z,984.0845062706145
2023-01-17T02:26:31.272Z,983.8835503732739
2023-01-17T02:31:33.547Z,983.9946274490221
2023-01-17T02:36:36.815Z,984.0701373184316
2023-01-17T02:41:35.985Z,984.1775510061785
2023-01-17T02:46:32.285Z,984.1675344417048
2023-01-17T02:51:49.561Z,984.4513515229855
2023-01-17T02:56:56.692Z,985.1915864704314
2023-01-17T03:02:05.165Z,986.0718663605562
2023-01-17T03:07:07.169Z,986.382336226281
2023-01-17T03:12:04.461Z,986.4215526061049
2023-01-17T03:17:02.671Z,986.421495111245
2023-01-17T03:21:58.939Z,986.2833708580777
2023-01-17T03:26:55.197Z,986.19218135489
2023-01-17T03:31:51.477Z,986.0676693542898
2023-01-17T03:36:47.766Z,985.7894652334959
2023-01-17T03:41:43.982Z,985.7763753444924
2023-01-17T03:46:44.250Z,985.610304139529
2023-01-17T03:51:40.476Z,985.7309534217457
2023-01-17T03:56:36.739Z,985.777712572452
2023-01-17T04:01:33.175Z,985.5362851826736
2023-01-17T04:06:29.299Z,985.6972836619581
2023-01-17T04:11:25.551Z,985.8516784015243
2023-01-17T04:16:25.827Z,985.7350163752496
2023-01-17T04:21:22.049Z,985.732768999193
2023-01-17T04:26:18.291Z,985.7238226772471
2023-01-17T04:31:15.684Z,985.7503631659733
2023-01-17T04:36:11.846Z,985.7705635869324
2023-01-17T04:41:08.107Z,985.694372838454
2023-01-17T04:46:04.401Z,985.7179861487291
2023-01-17T04:51:00.610Z,985.6337909074075
2023-01-17T04:55:56.860Z,985.8284839167878
2023-01-17T05:00:53.227Z,985.7788362794494
2023-01-17T05:05:49.371Z,985.8501826160024
2023-01-17T05:10:45.623Z,985.9150521243656
2023-01-17T05:15:41.939Z,986.0087448447583
2023-01-17T05:20:38.162Z,985.9868529246929
2023-01-17T05:25:34.444Z,985.7689297194155
2023-01-17T05:30:31.673Z,985.8779762744989
2023-01-17T05:35:28.949Z,985.9574609016344
2023-01-17T05:40:26.210Z,985.8899008796586
2023-01-17T05:45:22.428Z,985.9941255608851
2023-01-17T05:50:19.713Z,986.1134366665427
2023-01-17T05:55:15.958Z,986.2675775141964
2023-01-17T06:00:13.197Z,986.5211596875789
2023-01-17T06:05:09.468Z,986.4923645658012
2023-01-17T06:10:05.708Z,986.6405209287296
2023-01-17T06:15:01.997Z,986.7537044345084
2023-01-17T06:19:58.217Z,986.779214533761
2023-01-17T06:24:54.490Z,986.9826199056379
2023-01-17T06:29:50.793Z,986.9077406538725
2023-01-17T06:34:47.024Z,987.0610024778284
2023-01-17T06:39:43.270Z,987.0628184907796
2023-01-17T06:44:40.619Z,987.0631995020257
2023-01-17T06:49:36.782Z,987.0414883386115
2023-01-17T06:54:33.079Z,987.2814318739499
2023-01-17T06:59:29.359Z,987.4208005765092
2023-01-17T07:04:25.570Z,987.4252546253035
2023-01-17T07:09:21.868Z,987.3928629654231
2023-01-17T07:14:18.092Z,987.3988504674738
2023-01-17T07:19:14.338Z,987.4164805107499
2023-01-17T07:24:10.593Z,987.4518683836228
2023-01-17T07:29:06.919Z,987.6162454421413
2023-01-17T07:34:03.125Z,987.7546217815623
2023-01-17T07:38:59.382Z,987.8953319972832
2023-01-17T07:43:56.432Z,988.0107782292554
2023-01-17T07:48:54.316Z,988.0443883635581
2023-01-17T07:53:50.165Z,988.141664046076
2023-01-17T07:58:46.406Z,988.1038010352898
2023-01-17T08:03:43.722Z,988.0766706621275
2023-01-17T08:08:39.912Z,988.036686511927
2023-01-17T08:13:37.186Z,987.9598228702972
2023-01-17T08:18:33.631Z,987.9706507943579
2023-01-17T08:23:29.762Z,987.925078658741
2023-01-17T08:28:27.985Z,988.1290993699549
2023-01-17T08:33:24.265Z,988.0663640633968
2023-01-17T08:38:24.531Z,988.0777427777867
2023-01-17T08:43:25.758Z,988.2586129582015
2023-01-17T08:48:21.965Z,988.2553872920081
2023-01-17T08:53:18.238Z,988.2566436159389
2023-01-17T08:58:14.491Z,988.3053491967053
2023-01-17T09:03:12.019Z,988.3313287857585
2023-01-17T09:08:08.045Z,988.2497796586266
2023-01-17T09:13:05.296Z,988.3072583767358
2023-01-17T09:18:01.557Z,988.4234588151511
2023-01-17T09:22:57.806Z,988.4503191273734
2023-01-17T09:27:54.098Z,988.489075503988
2023-01-17T09:32:52.292Z,988.4889770327642
2023-01-17T09:37:49.580Z,988.5738646747869
2023-01-17T09:42:53.863Z,988.5522698167026
2023-01-17T09:47:54.067Z,988.3940658592827
2023-01-17T09:52:54.328Z,988.527962800591
2023-01-17T09:58:00.653Z,988.592979780258
2023-01-17T10:03:13.857Z,988.5872274365631
2023-01-17T10:08:19.999Z,988.4470347241491
2023-01-17T10:13:25.264Z,988.3204732361379
2023-01-17T10:18:34.489Z,988.2079269285023
2023-01-17T10:23:46.680Z,988.1476948053499
2023-01-17T10:33:53.167Z,987.9030325496129
2023-01-17T10:38:51.437Z,987.9360773281016
2023-01-17T10:49:10.869Z,988.1239673363602
2023-01-17T10:54:19.130Z,987.9865421222036
2023-01-17T10:59:17.411Z,987.8847487445771
2023-01-17T11:04:15.622Z,987.8656026181714
2023-01-17T11:09:20.889Z,987.7488178101272
2023-01-17T11:14:19.374Z,987.7157701395731
2023-01-17T11:19:17.409Z,987.57173034293
2023-01-17T11:24:18.586Z,987.5529074585869
2023-01-17T11:29:15.848Z,987.3688340442683
2023-01-17T11:34:15.183Z,987.3829553788731
2023-01-17T11:39:23.348Z,987.3994883598966
2023-01-17T11:44:24.206Z,987.1841164171223
2023-01-17T11:49:23.881Z,987.0519310079701
2023-01-17T11:54:23.111Z,987.038786647729
2023-01-17T11:59:24.346Z,987.0310644161154
2023-01-17T12:04:38.615Z,986.8271980761626
2023-01-17T12:09:42.785Z,986.7734176475466
2023-01-17T12:14:50.020Z,986.6048638544563
2023-01-17T12:19:57.286Z,986.4182401789132
2023-01-17T12:25:11.456Z,986.3194424022436
2023-01-17T12:30:23.727Z,986.2515486837136
2023-01-17T12:35:25.994Z,986.2267168940605
2023-01-17T12:40:29.198Z,986.2516989761634
2023-01-17T12:45:31.470Z,986.1399534932434
2023-01-17T12:50:37.672Z,986.177387170782
2023-01-17T12:55:41.919Z,986.2003101404858
2023-01-17T12:59:17.368Z,986.1861629147024
2023-01-17T13:04:19.686Z,986.21163375256
2023-01-17T13:09:26.080Z,986.0560342427544
2023-01-17T13:14:22.152Z,985.8498022102497
2023-01-17T13:19:23.387Z,985.8416697387166
2023-01-17T13:24:27.625Z,985.6772871290817
2023-01-17T13:29:33.888Z,985.6348379186461
2023-01-17T13:34:45.093Z,985.6471593566887
2023-01-17T13:39:51.263Z,985.6564012071941
2023-01-17T13:44:47.579Z,985.6536160343064
2023-01-17T13:49:52.791Z,985.417315184631
2023-01-17T14:00:05.248Z,985.0311713747965
2023-01-17T14:05:12.676Z,984.9328867760548
2023-01-17T14:10:21.750Z,984.7346195370167
2023-01-17T14:15:21.010Z,984.6181698661833
2023-01-17T14:20:28.174Z,984.576912278103
2023-01-17T14:25:29.433Z,984.5581059045147
2023-01-17T14:30:28.709Z,984.4969015929141
2023-01-17T14:35:26.944Z,984.4136906413253
2023-01-17T14:40:24.238Z,984.2686492350191
2023-01-17T14:45:23.444Z,984.2919894425519
2023-01-17T14:50:21.837Z,984.1774405430843
2023-01-17T14:55:19.989Z,984.0548357312668
2023-01-17T15:00:18.247Z,983.9377782111144
2023-01-17T15:05:15.469Z,983.9380065084312
2023-01-17T15:10:15.788Z,983.6392724629034
2023-01-17T15:15:26.083Z,983.5249722653061
2023-01-17T15:20:25.215Z,983.3866059562502
2023-01-17T15:25:21.514Z,983.1902404636274
2023-01-17T15:30:18.719Z,983.2001933167611
2023-01-17T15:35:15.988Z,982.9367447909973
2023-01-17T15:40:16.282Z,982.7732422587221
2023-01-17T15:45:15.495Z,982.6003994431034
2023-01-17T15:50:25.737Z,982.5907147517827
2023-01-17T15:55:22.439Z,982.3759835736217
2023-01-17T16:00:20.334Z,982.1452149481755
2023-01-17T16:05:26.487Z,981.8393838657098
2023-01-17T16:10:24.713Z,981.7933590938824
2023-01-17T16:15:21.994Z,981.5778864329226
2023-01-17T16:20:20.249Z,981.6408758053611
2023-01-17T16:25:17.471Z,981.6165577551453
2023-01-17T16:30:14.771Z,981.455341764076
2023-01-17T16:35:13.988Z,981.3492974060392
2023-01-17T16:40:11.804Z,981.1981770964189
2023-01-17T16:45:08.595Z,981.0504494338477
2023-01-17T16:50:04.769Z,980.9449396548996
2023-01-17T16:55:01.078Z,980.8750190214379
2023-01-17T16:59:57.284Z,980.8641351667715
2023-01-17T17:04:53.568Z,980.7081249705496
2023-01-17T17:09:50.378Z,980.5985346176901
2023-01-17T17:14:47.075Z,980.4858697668466
2023-01-17T17:19:43.293Z,980.4060285719513
2023-01-17T17:24:39.595Z,980.2674321019913
2023-01-17T17:29:36.827Z,980.1680249810038
2023-01-17T17:34:33.078Z,980.0574813617517
2023-01-17T17:39:29.360Z,979.8849450684638
2023-01-17T17:44:25.614Z,979.6618126446253
2023-01-17T17:49:21.865Z,979.4128858913758
2023-01-17T17:54:19.120Z,979.3608325485765
2023-01-17T17:59:16.367Z,979.329984810533
2023-01-17T18:04:12.802Z,979.1470448941332
2023-01-17T18:09:11.257Z,979.0973103172282
2023-01-17T18:14:08.160Z,979.009095799536
2023-01-17T18:19:04.422Z,979.0495265992166
2023-01-17T18:24:01.688Z,978.9330627272882
2023-01-17T18:28:58.935Z,978.972784204589
2023-01-17T18:33:56.218Z,979.1053685509335
2023-01-17T18:38:52.447Z,979.0653096904364
2023-01-17T18:43:48.751Z,979.1731087290511
2023-01-17T18:48:44.973Z,978.9593676456498
2023-01-17T18:53:42.219Z,978.9019731633682
2023-01-17T18:58:39.489Z,978.7518640951753
2023-01-17T19:03:37.013Z,978.7702371091835
2023-01-17T19:08:33.996Z,978.8703809569946
2023-01-17T19:13:31.284Z,978.8733737679894
2023-01-17T19:18:27.563Z,978.9267470143824
2023-01-17T19:23:23.798Z,978.9291293590654
2023-01-17T19:28:20.022Z,978.7981350627202
2023-01-17T19:33:16.298Z,978.7959261165684
2023-01-17T19:38:15.567Z,978.6944862832595
2023-01-17T19:43:11.896Z,978.6725819790569
2023-01-17T19:48:08.070Z,978.7289617785707
2023-01-17T19:53:03.330Z,978.4293179676342
2023-01-17T19:58:01.581Z,978.5876015987305
2023-01-17T20:02:57.879Z,978.4517046783424
2023-01-17T20:07:54.537Z,978.534236827429
2023-01-17T20:12:51.362Z,978.4338225139471
2023-01-17T20:17:47.630Z,978.3662632880472
2023-01-17T20:22:44.956Z,978.3347829634145
2023-01-17T20:27:41.128Z,978.5798390006594
2023-01-17T20:32:36.420Z,978.3966517719466
2023-01-17T20:37:32.645Z,978.4305816620024
2023-01-17T20:42:29.900Z,978.5470097299875
2023-01-17T20:47:26.180Z,978.5197498618526
2023-01-17T20:52:22.459Z,978.5796856728699
2023-01-17T20:57:19.302Z,978.7491953863303
2023-01-17T21:02:16.055Z,978.7408944793591
2023-01-17T21:07:13.225Z,978.7446554807285
2023-01-17T21:12:09.448Z,978.8706639393183
2023-01-17T21:17:05.743Z,979.163029180497
2023-01-17T21:22:01.991Z,979.377442974555
2023-01-17T21:26:59.285Z,979.6765653200865
2023-01-17T21:31:56.488Z,979.7389036720255
2023-01-17T21:36:53.781Z,979.9358368007915
2023-01-17T21:41:51.113Z,979.7623517476724
2023-01-17T21:46:49.186Z,979.9964978535666
2023-01-17T21:51:46.585Z,980.1194396131173
2023-01-17T21:56:43.819Z,980.1531660283675
2023-01-17T22:01:44.176Z,980.0253561876544
2023-01-17T22:06:40.290Z,979.7999574108425
2023-01-17T22:11:37.553Z,979.368615101686
2023-01-17T22:16:34.806Z,979.320508247153
2023-01-17T22:21:34.084Z,979.3787971440295
2023-01-17T22:26:33.343Z,979.3562945342729
2023-01-17T22:31:29.565Z,979.482893102783
2023-01-17T22:36:30.831Z,979.3717372017502
2023-01-17T22:41:32.169Z,979.5219662124478
2023-01-17T22:46:31.436Z,979.5075995194261
2023-01-17T22:51:27.625Z,979.5334232705205
2023-01-17T22:56:28.840Z,979.5403370566551
2023-01-17T23:01:26.172Z,979.6950977523069
2023-01-17T23:06:23.358Z,979.5992788022074
2023-01-17T23:11:22.597Z,979.7409266309822
2023-01-17T23:16:18.906Z,979.8047755397959
2023-01-17T23:21:15.126Z,979.7159156782221
2023-01-17T23:26:11.396Z,979.8270830053078
2023-01-17T23:31:08.726Z,979.8696509929184
2023-01-17T23:36:05.897Z,979.8956839519153
2023-01-17T23:41:04.192Z,979.883077012152
2023-01-17T23:46:00.442Z,979.9994102525477
2023-01-17T23:50:57.663Z,979.884378651202
2023-01-17T23:55:53.940Z,979.9857063669308
